Terminal Aerodrome Forecast
Issued by NWS Wilmington, OH

Home | Current Version | Previous Version | Text Only | Print | Product List | Glossary On
Versions: 1 2 3 4 5 6 7 8 9 10 11 12 13 14 15 16 17 18 19 20 21
000
FTUS41 KILN 181135
TAFDAY
TAF
KDAY 181135Z 1812/1912 24006KT P6SM SCT070
     FM181600 27011G18KT P6SM SCT035
     FM190000 28007KT P6SM FEW200
     FM190900 23004KT P6SM BKN120=

USA.gov is the U.S. government's official web portal to all federal, state and local government web resources and services.